sensor_id;sensor_type;location;lat;lon;timestamp;temperature;humidity
12771;DHT22;6449;47.666;9.160;2022-07-06T00:03:23;19.00;99.90
12771;DHT22;6449;47.666;9.160;2022-07-06T00:08:18;18.70;99.90
12771;DHT22;6449;47.666;9.160;2022-07-06T00:13:11;18.70;99.90
12771;DHT22;6449;47.666;9.160;2022-07-06T00:18:05;18.80;99.90
12771;DHT22;6449;47.666;9.160;2022-07-06T00:22:58;18.60;99.90
12771;DHT22;6449;47.666;9.160;2022-07-06T00:27:53;18.50;99.90
12771;DHT22;6449;47.666;9.160;2022-07-06T00:32:46;18.50;99.90
12771;DHT22;6449;47.666;9.160;2022-07-06T00:37:40;18.60;99.90
12771;DHT22;6449;47.666;9.160;2022-07-06T00:42:39;18.50;99.90
12771;DHT22;6449;47.666;9.160;2022-07-06T00:47:35;18.40;99.90
12771;DHT22;6449;47.666;9.160;2022-07-06T00:52:31;18.50;99.90
12771;DHT22;6449;47.666;9.160;2022-07-06T00:57:24;18.40;99.90
12771;DHT22;6449;47.666;9.160;2022-07-06T01:02:18;18.30;99.90
12771;DHT22;6449;47.666;9.160;2022-07-06T01:07:13;18.10;99.90
12771;DHT22;6449;47.666;9.160;2022-07-06T01:12:07;18.10;99.90
12771;DHT22;6449;47.666;9.160;2022-07-06T01:17:01;18.20;99.90
12771;DHT22;6449;47.666;9.160;2022-07-06T01:21:57;18.50;99.90
12771;DHT22;6449;47.666;9.160;2022-07-06T01:26:51;18.50;99.90
12771;DHT22;6449;47.666;9.160;2022-07-06T01:31:46;18.40;99.90
12771;DHT22;6449;47.666;9.160;2022-07-06T01:36:41;18.30;99.90
12771;DHT22;6449;47.666;9.160;2022-07-06T01:41:36;18.10;99.90
12771;DHT22;6449;47.666;9.160;2022-07-06T01:46:30;18.00;99.90
12771;DHT22;6449;47.666;9.160;2022-07-06T01:51:24;17.90;99.90
12771;DHT22;6449;47.666;9.160;2022-07-06T01:56:18;17.80;99.90
12771;DHT22;6449;47.666;9.160;2022-07-06T02:01:14;17.80;99.90
12771;DHT22;6449;47.666;9.160;2022-07-06T02:06:10;17.80;99.90
12771;DHT22;6449;47.666;9.160;2022-07-06T02:11:05;17.60;99.90
12771;DHT22;6449;47.666;9.160;2022-07-06T02:15:59;17.40;99.90
12771;DHT22;6449;47.666;9.160;2022-07-06T02:20:54;17.40;99.90
12771;DHT22;6449;47.666;9.160;2022-07-06T02:25:48;17.30;99.90
12771;DHT22;6449;47.666;9.160;2022-07-06T02:30:41;17.30;99.90
12771;DHT22;6449;47.666;9.160;2022-07-06T02:35:34;17.30;99.90
12771;DHT22;6449;47.666;9.160;2022-07-06T02:40:30;17.30;99.90
12771;DHT22;6449;47.666;9.160;2022-07-06T02:45:24;17.30;99.90
12771;DHT22;6449;47.666;9.160;2022-07-06T02:50:17;17.20;99.90
12771;DHT22;6449;47.666;9.160;2022-07-06T02:55:11;17.10;99.90
12771;DHT22;6449;47.666;9.160;2022-07-06T03:00:07;17.10;99.90
12771;DHT22;6449;47.666;9.160;2022-07-06T03:05:02;16.90;99.90
12771;DHT22;6449;47.666;9.160;2022-07-06T03:09:55;17.00;99.90
12771;DHT22;6449;47.666;9.160;2022-07-06T03:14:50;16.80;99.90
12771;DHT22;6449;47.666;9.160;2022-07-06T03:19:45;16.70;99.90
12771;DHT22;6449;47.666;9.160;2022-07-06T03:24:38;16.80;99.90
12771;DHT22;6449;47.666;9.160;2022-07-06T03:29:31;16.70;99.90
12771;DHT22;6449;47.666;9.160;2022-07-06T03:34:25;16.70;99.90
12771;DHT22;6449;47.666;9.160;2022-07-06T03:39:20;16.70;99.90
12771;DHT22;6449;47.666;9.160;2022-07-06T03:44:13;16.60;99.90
12771;DHT22;6449;47.666;9.160;2022-07-06T03:49:06;16.80;99.90
12771;DHT22;6449;47.666;9.160;2022-07-06T03:54:00;16.70;99.90
12771;DHT22;6449;47.666;9.160;2022-07-06T03:58:55;16.70;99.90
12771;DHT22;6449;47.666;9.160;2022-07-06T04:03:49;16.70;99.90
12771;DHT22;6449;47.666;9.160;2022-07-06T04:08:43;16.60;99.90
12771;DHT22;6449;47.666;9.160;2022-07-06T04:13:36;16.50;99.90
12771;DHT22;6449;47.666;9.160;2022-07-06T04:18:32;16.50;99.90
12771;DHT22;6449;47.666;9.160;2022-07-06T04:23:26;16.50;99.90
12771;DHT22;6449;47.666;9.160;2022-07-06T04:28:22;16.50;99.90
12771;DHT22;6449;47.666;9.160;2022-07-06T04:33:16;16.60;99.90
12771;DHT22;6449;47.666;9.160;2022-07-06T04:38:11;16.70;99.90
12771;DHT22;6449;47.666;9.160;2022-07-06T04:43:04;16.80;99.90
12771;DHT22;6449;47.666;9.160;2022-07-06T04:47:58;16.90;99.90
12771;DHT22;6449;47.666;9.160;2022-07-06T04:52:51;17.10;99.90
12771;DHT22;6449;47.666;9.160;2022-07-06T04:57:46;17.40;99.90
12771;DHT22;6449;47.666;9.160;2022-07-06T05:02:40;17.70;99.90
12771;DHT22;6449;47.666;9.160;2022-07-06T05:07:33;18.00;99.90
12771;DHT22;6449;47.666;9.160;2022-07-06T05:12:31;18.20;99.90
12771;DHT22;6449;47.666;9.160;2022-07-06T05:17:25;18.50;99.90
12771;DHT22;6449;47.666;9.160;2022-07-06T05:22:20;18.70;99.90
12771;DHT22;6449;47.666;9.160;2022-07-06T05:27:14;18.90;99.90
12771;DHT22;6449;47.666;9.160;2022-07-06T05:32:07;19.10;99.90
12771;DHT22;6449;47.666;9.160;2022-07-06T05:37:03;19.20;99.90
12771;DHT22;6449;47.666;9.160;2022-07-06T05:41:56;19.30;99.90
12771;DHT22;6449;47.666;9.160;2022-07-06T05:46:49;19.40;99.90
12771;DHT22;6449;47.666;9.160;2022-07-06T05:51:43;19.50;99.90
12771;DHT22;6449;47.666;9.160;2022-07-06T05:56:38;19.60;99.90
12771;DHT22;6449;47.666;9.160;2022-07-06T06:01:31;19.50;99.90
12771;DHT22;6449;47.666;9.160;2022-07-06T06:06:25;19.40;99.90
12771;DHT22;6449;47.666;9.160;2022-07-06T06:11:18;19.40;99.90
12771;DHT22;6449;47.666;9.160;2022-07-06T06:16:13;19.20;99.90
12771;DHT22;6449;47.666;9.160;2022-07-06T06:21:07;19.10;99.90
12771;DHT22;6449;47.666;9.160;2022-07-06T06:26:05;19.00;99.90
12771;DHT22;6449;47.666;9.160;2022-07-06T06:30:58;19.00;99.90
12771;DHT22;6449;47.666;9.160;2022-07-06T06:35:53;18.90;99.90
12771;DHT22;6449;47.666;9.160;2022-07-06T06:40:47;18.90;99.90
12771;DHT22;6449;47.666;9.160;2022-07-06T06:45:41;19.00;99.90
12771;DHT22;6449;47.666;9.160;2022-07-06T06:50:38;18.90;99.90
12771;DHT22;6449;47.666;9.160;2022-07-06T06:55:35;19.10;99.90
12771;DHT22;6449;47.666;9.160;2022-07-06T07:00:29;19.20;99.90
12771;DHT22;6449;47.666;9.160;2022-07-06T07:05:23;19.40;99.90
12771;DHT22;6449;47.666;9.160;2022-07-06T07:10:16;19.70;99.90
12771;DHT22;6449;47.666;9.160;2022-07-06T07:15:11;19.80;99.90
12771;DHT22;6449;47.666;9.160;2022-07-06T07:20:06;19.90;99.90
12771;DHT22;6449;47.666;9.160;2022-07-06T07:25:01;19.80;99.90
12771;DHT22;6449;47.666;9.160;2022-07-06T07:29:54;20.00;99.90
12771;DHT22;6449;47.666;9.160;2022-07-06T07:34:49;20.30;99.90
12771;DHT22;6449;47.666;9.160;2022-07-06T07:39:42;20.50;99.90
12771;DHT22;6449;47.666;9.160;2022-07-06T07:44:38;20.70;99.90
12771;DHT22;6449;47.666;9.160;2022-07-06T07:49:32;20.90;99.90
12771;DHT22;6449;47.666;9.160;2022-07-06T07:54:27;20.60;99.90
12771;DHT22;6449;47.666;9.160;2022-07-06T07:59:21;20.40;99.90
12771;DHT22;6449;47.666;9.160;2022-07-06T08:04:14;20.60;99.90
12771;DHT22;6449;47.666;9.160;2022-07-06T08:09:08;20.80;99.90
12771;DHT22;6449;47.666;9.160;2022-07-06T08:14:04;21.20;99.90
12771;DHT22;6449;47.666;9.160;2022-07-06T08:18:57;21.40;99.90
12771;DHT22;6449;47.666;9.160;2022-07-06T08:23:51;21.70;99.90
12771;DHT22;6449;47.666;9.160;2022-07-06T08:28:46;22.00;99.90
12771;DHT22;6449;47.666;9.160;2022-07-06T08:33:41;21.90;99.90
12771;DHT22;6449;47.666;9.160;2022-07-06T08:38:34;22.10;99.90
12771;DHT22;6449;47.666;9.160;2022-07-06T08:43:27;22.40;99.90
12771;DHT22;6449;47.666;9.160;2022-07-06T08:48:23;22.50;99.90
12771;DHT22;6449;47.666;9.160;2022-07-06T08:53:18;22.40;99.90
12771;DHT22;6449;47.666;9.160;2022-07-06T08:58:14;22.40;99.90
12771;DHT22;6449;47.666;9.160;2022-07-06T09:03:07;22.30;99.90
12771;DHT22;6449;47.666;9.160;2022-07-06T09:08:04;22.60;99.90
12771;DHT22;6449;47.666;9.160;2022-07-06T09:13:06;22.80;99.90
12771;DHT22;6449;47.666;9.160;2022-07-06T09:18:01;22.80;99.90
12771;DHT22;6449;47.666;9.160;2022-07-06T09:23:00;22.90;99.90
12771;DHT22;6449;47.666;9.160;2022-07-06T09:27:57;23.10;99.90
12771;DHT22;6449;47.666;9.160;2022-07-06T09:32:54;23.20;99.90
12771;DHT22;6449;47.666;9.160;2022-07-06T09:37:59;23.40;99.90
12771;DHT22;6449;47.666;9.160;2022-07-06T09:43:07;23.50;99.90
12771;DHT22;6449;47.666;9.160;2022-07-06T09:48:08;23.60;99.90
12771;DHT22;6449;47.666;9.160;2022-07-06T09:53:03;23.80;99.90
12771;DHT22;6449;47.666;9.160;2022-07-06T09:57:56;24.00;99.90
12771;DHT22;6449;47.666;9.160;2022-07-06T10:02:51;24.10;99.90
12771;DHT22;6449;47.666;9.160;2022-07-06T10:07:50;24.20;99.90
12771;DHT22;6449;47.666;9.160;2022-07-06T10:12:44;24.30;99.90
12771;DHT22;6449;47.666;9.160;2022-07-06T10:17:42;24.30;99.90
12771;DHT22;6449;47.666;9.160;2022-07-06T10:22:38;24.40;99.90
12771;DHT22;6449;47.666;9.160;2022-07-06T10:27:35;24.60;99.90
12771;DHT22;6449;47.666;9.160;2022-07-06T10:32:29;24.60;99.90
12771;DHT22;6449;47.666;9.160;2022-07-06T10:37:24;24.40;99.90
12771;DHT22;6449;47.666;9.160;2022-07-06T10:42:42;24.40;99.90
12771;DHT22;6449;47.666;9.160;2022-07-06T10:47:37;24.20;99.90
12771;DHT22;6449;47.666;9.160;2022-07-06T10:52:49;24.20;99.90
12771;DHT22;6449;47.666;9.160;2022-07-06T10:57:53;24.40;99.90
12771;DHT22;6449;47.666;9.160;2022-07-06T11:02:46;24.60;99.90
12771;DHT22;6449;47.666;9.160;2022-07-06T11:07:49;24.70;99.90
12771;DHT22;6449;47.666;9.160;2022-07-06T11:12:52;24.80;99.90
12771;DHT22;6449;47.666;9.160;2022-07-06T11:18:11;24.80;99.90
12771;DHT22;6449;47.666;9.160;2022-07-06T11:23:05;25.10;99.90
12771;DHT22;6449;47.666;9.160;2022-07-06T11:28:00;25.30;99.90
12771;DHT22;6449;47.666;9.160;2022-07-06T11:32:55;25.50;99.90
12771;DHT22;6449;47.666;9.160;2022-07-06T11:37:51;25.70;99.90
12771;DHT22;6449;47.666;9.160;2022-07-06T11:42:53;25.90;99.90
12771;DHT22;6449;47.666;9.160;2022-07-06T11:47:48;25.80;99.90
12771;DHT22;6449;47.666;9.160;2022-07-06T11:52:41;25.90;99.90
12771;DHT22;6449;47.666;9.160;2022-07-06T11:57:35;26.00;99.90
12771;DHT22;6449;47.666;9.160;2022-07-06T12:02:29;25.90;99.90
12771;DHT22;6449;47.666;9.160;2022-07-06T12:07:23;26.00;99.90
12771;DHT22;6449;47.666;9.160;2022-07-06T12:12:17;25.90;99.90
12771;DHT22;6449;47.666;9.160;2022-07-06T12:17:12;25.90;99.90
12771;DHT22;6449;47.666;9.160;2022-07-06T12:22:07;25.90;99.90
12771;DHT22;6449;47.666;9.160;2022-07-06T12:27:12;25.80;99.90
12771;DHT22;6449;47.666;9.160;2022-07-06T12:32:13;25.70;99.90
12771;DHT22;6449;47.666;9.160;2022-07-06T12:37:09;25.60;99.90
12771;DHT22;6449;47.666;9.160;2022-07-06T12:42:04;25.40;99.90
12771;DHT22;6449;47.666;9.160;2022-07-06T12:47:04;25.40;99.90
12771;DHT22;6449;47.666;9.160;2022-07-06T12:52:00;25.40;99.90
12771;DHT22;6449;47.666;9.160;2022-07-06T12:57:06;25.30;99.90
12771;DHT22;6449;47.666;9.160;2022-07-06T13:02:06;25.30;99.90
12771;DHT22;6449;47.666;9.160;2022-07-06T13:07:02;25.20;99.90
12771;DHT22;6449;47.666;9.160;2022-07-06T13:11:59;25.30;99.90
12771;DHT22;6449;47.666;9.160;2022-07-06T13:16:52;25.30;99.90
12771;DHT22;6449;47.666;9.160;2022-07-06T13:21:48;25.30;99.90
12771;DHT22;6449;47.666;9.160;2022-07-06T13:26:41;25.20;99.90
12771;DHT22;6449;47.666;9.160;2022-07-06T13:31:36;25.10;99.90
12771;DHT22;6449;47.666;9.160;2022-07-06T13:36:31;25.20;99.90
12771;DHT22;6449;47.666;9.160;2022-07-06T13:41:26;25.20;99.90
12771;DHT22;6449;47.666;9.160;2022-07-06T13:46:20;25.10;99.90
12771;DHT22;6449;47.666;9.160;2022-07-06T13:51:14;25.10;99.90
12771;DHT22;6449;47.666;9.160;2022-07-06T13:56:07;25.00;99.90
12771;DHT22;6449;47.666;9.160;2022-07-06T14:01:03;25.00;99.90
12771;DHT22;6449;47.666;9.160;2022-07-06T14:05:57;25.00;99.90
12771;DHT22;6449;47.666;9.160;2022-07-06T14:10:51;25.00;99.90
12771;DHT22;6449;47.666;9.160;2022-07-06T14:15:44;25.20;99.90
12771;DHT22;6449;47.666;9.160;2022-07-06T14:20:39;25.30;99.90
12771;DHT22;6449;47.666;9.160;2022-07-06T14:25:33;25.30;99.90
12771;DHT22;6449;47.666;9.160;2022-07-06T14:30:26;25.00;99.90
12771;DHT22;6449;47.666;9.160;2022-07-06T14:35:20;24.80;99.90
12771;DHT22;6449;47.666;9.160;2022-07-06T14:40:16;24.70;99.90
12771;DHT22;6449;47.666;9.160;2022-07-06T14:45:10;24.60;99.90
12771;DHT22;6449;47.666;9.160;2022-07-06T14:50:04;24.60;99.90
12771;DHT22;6449;47.666;9.160;2022-07-06T14:54:58;24.50;99.90
12771;DHT22;6449;47.666;9.160;2022-07-06T14:59:54;24.50;99.90
12771;DHT22;6449;47.666;9.160;2022-07-06T15:04:47;24.70;99.90
12771;DHT22;6449;47.666;9.160;2022-07-06T15:09:40;24.80;99.90
12771;DHT22;6449;47.666;9.160;2022-07-06T15:14:34;24.90;99.90
12771;DHT22;6449;47.666;9.160;2022-07-06T15:19:29;24.90;99.90
12771;DHT22;6449;47.666;9.160;2022-07-06T15:24:22;24.70;99.90
12771;DHT22;6449;47.666;9.160;2022-07-06T15:29:16;24.70;99.90
12771;DHT22;6449;47.666;9.160;2022-07-06T15:34:09;24.90;99.90
12771;DHT22;6449;47.666;9.160;2022-07-06T15:39:04;24.70;99.90
12771;DHT22;6449;47.666;9.160;2022-07-06T15:43:58;24.60;99.90
12771;DHT22;6449;47.666;9.160;2022-07-06T15:48:51;24.60;99.90
12771;DHT22;6449;47.666;9.160;2022-07-06T15:53:45;24.70;99.90
12771;DHT22;6449;47.666;9.160;2022-07-06T15:58:40;24.70;99.90
12771;DHT22;6449;47.666;9.160;2022-07-06T16:03:34;24.70;99.90
12771;DHT22;6449;47.666;9.160;2022-07-06T16:08:29;24.80;99.90
12771;DHT22;6449;47.666;9.160;2022-07-06T16:13:35;24.80;99.90
12771;DHT22;6449;47.666;9.160;2022-07-06T16:18:30;24.70;99.90
12771;DHT22;6449;47.666;9.160;2022-07-06T16:23:23;24.60;99.90
12771;DHT22;6449;47.666;9.160;2022-07-06T16:28:17;24.60;99.90
12771;DHT22;6449;47.666;9.160;2022-07-06T16:33:11;24.60;99.90
12771;DHT22;6449;47.666;9.160;2022-07-06T16:38:06;24.60;99.90
12771;DHT22;6449;47.666;9.160;2022-07-06T16:43:00;24.50;99.90
12771;DHT22;6449;47.666;9.160;2022-07-06T16:47:54;24.50;99.90
12771;DHT22;6449;47.666;9.160;2022-07-06T16:52:47;24.40;99.90
12771;DHT22;6449;47.666;9.160;2022-07-06T16:57:42;24.30;99.90
12771;DHT22;6449;47.666;9.160;2022-07-06T17:02:36;24.30;99.90
12771;DHT22;6449;47.666;9.160;2022-07-06T17:07:30;24.20;99.90
12771;DHT22;6449;47.666;9.160;2022-07-06T17:12:23;24.10;99.90
12771;DHT22;6449;47.666;9.160;2022-07-06T17:17:18;24.00;99.90
12771;DHT22;6449;47.666;9.160;2022-07-06T17:22:12;24.00;99.90
12771;DHT22;6449;47.666;9.160;2022-07-06T17:27:09;24.00;99.90
12771;DHT22;6449;47.666;9.160;2022-07-06T17:32:02;23.80;99.90
12771;DHT22;6449;47.666;9.160;2022-07-06T17:37:04;23.70;99.90
12771;DHT22;6449;47.666;9.160;2022-07-06T17:41:57;23.60;99.90
12771;DHT22;6449;47.666;9.160;2022-07-06T17:46:50;23.50;99.90
12771;DHT22;6449;47.666;9.160;2022-07-06T17:51:44;23.50;99.90
12771;DHT22;6449;47.666;9.160;2022-07-06T17:56:39;23.50;99.90
12771;DHT22;6449;47.666;9.160;2022-07-06T18:01:32;23.60;99.90
12771;DHT22;6449;47.666;9.160;2022-07-06T18:06:25;23.40;99.90
12771;DHT22;6449;47.666;9.160;2022-07-06T18:11:19;23.40;99.90
12771;DHT22;6449;47.666;9.160;2022-07-06T18:16:14;23.40;99.90
12771;DHT22;6449;47.666;9.160;2022-07-06T18:21:07;23.40;99.90
12771;DHT22;6449;47.666;9.160;2022-07-06T18:26:01;23.30;99.90
12771;DHT22;6449;47.666;9.160;2022-07-06T18:30:54;23.20;99.90
12771;DHT22;6449;47.666;9.160;2022-07-06T18:35:49;23.10;99.90
12771;DHT22;6449;47.666;9.160;2022-07-06T18:40:46;23.00;99.90
12771;DHT22;6449;47.666;9.160;2022-07-06T18:45:39;23.00;99.90
12771;DHT22;6449;47.666;9.160;2022-07-06T18:50:33;23.00;99.90
12771;DHT22;6449;47.666;9.160;2022-07-06T18:55:28;22.90;99.90
12771;DHT22;6449;47.666;9.160;2022-07-06T19:00:24;22.90;99.90
12771;DHT22;6449;47.666;9.160;2022-07-06T19:05:18;22.80;99.90
12771;DHT22;6449;47.666;9.160;2022-07-06T19:10:11;22.70;99.90
12771;DHT22;6449;47.666;9.160;2022-07-06T19:15:07;22.50;99.90
12771;DHT22;6449;47.666;9.160;2022-07-06T19:20:00;22.40;99.90
12771;DHT22;6449;47.666;9.160;2022-07-06T19:24:54;22.30;99.90
12771;DHT22;6449;47.666;9.160;2022-07-06T19:29:47;22.30;99.90
12771;DHT22;6449;47.666;9.160;2022-07-06T19:34:47;22.20;99.90
12771;DHT22;6449;47.666;9.160;2022-07-06T19:39:40;22.10;99.90
12771;DHT22;6449;47.666;9.160;2022-07-06T19:44:35;22.20;99.90
12771;DHT22;6449;47.666;9.160;2022-07-06T19:49:29;22.20;99.90
12771;DHT22;6449;47.666;9.160;2022-07-06T19:54:39;22.10;99.90
12771;DHT22;6449;47.666;9.160;2022-07-06T19:59:33;22.00;99.90
12771;DHT22;6449;47.666;9.160;2022-07-06T20:04:27;21.90;99.90
12771;DHT22;6449;47.666;9.160;2022-07-06T20:09:21;21.90;99.90
12771;DHT22;6449;47.666;9.160;2022-07-06T20:14:15;21.90;99.90
12771;DHT22;6449;47.666;9.160;2022-07-06T20:19:10;21.80;99.90
12771;DHT22;6449;47.666;9.160;2022-07-06T20:24:07;21.50;99.90
12771;DHT22;6449;47.666;9.160;2022-07-06T20:29:02;21.50;99.90
12771;DHT22;6449;47.666;9.160;2022-07-06T20:33:57;21.50;99.90
12771;DHT22;6449;47.666;9.160;2022-07-06T20:38:50;21.40;99.90
12771;DHT22;6449;47.666;9.160;2022-07-06T20:43:44;21.30;99.90
12771;DHT22;6449;47.666;9.160;2022-07-06T20:48:37;21.30;99.90
12771;DHT22;6449;47.666;9.160;2022-07-06T20:53:32;21.40;99.90
12771;DHT22;6449;47.666;9.160;2022-07-06T20:58:25;21.30;99.90
12771;DHT22;6449;47.666;9.160;2022-07-06T21:03:39;21.30;99.90
12771;DHT22;6449;47.666;9.160;2022-07-06T21:08:33;21.10;99.90
12771;DHT22;6449;47.666;9.160;2022-07-06T21:13:27;21.10;99.90
12771;DHT22;6449;47.666;9.160;2022-07-06T21:18:20;21.00;99.90
12771;DHT22;6449;47.666;9.160;2022-07-06T21:23:14;20.90;99.90
12771;DHT22;6449;47.666;9.160;2022-07-06T21:28:09;20.90;99.90
12771;DHT22;6449;47.666;9.160;2022-07-06T21:33:08;20.80;99.90
12771;DHT22;6449;47.666;9.160;2022-07-06T21:38:02;20.50;99.90
12771;DHT22;6449;47.666;9.160;2022-07-06T21:42:55;20.50;99.90
12771;DHT22;6449;47.666;9.160;2022-07-06T21:47:50;20.40;99.90
12771;DHT22;6449;47.666;9.160;2022-07-06T21:52:43;20.20;99.90
12771;DHT22;6449;47.666;9.160;2022-07-06T21:57:36;20.10;99.90
12771;DHT22;6449;47.666;9.160;2022-07-06T22:02:30;19.90;99.90
12771;DHT22;6449;47.666;9.160;2022-07-06T22:07:25;19.80;99.90
12771;DHT22;6449;47.666;9.160;2022-07-06T22:12:18;19.80;99.90
12771;DHT22;6449;47.666;9.160;2022-07-06T22:17:11;19.70;99.90
12771;DHT22;6449;47.666;9.160;2022-07-06T22:22:05;19.50;99.90
12771;DHT22;6449;47.666;9.160;2022-07-06T22:27:00;19.40;99.90
12771;DHT22;6449;47.666;9.160;2022-07-06T22:31:53;19.30;99.90
12771;DHT22;6449;47.666;9.160;2022-07-06T22:36:47;19.20;99.90
12771;DHT22;6449;47.666;9.160;2022-07-06T22:41:40;19.10;99.90
12771;DHT22;6449;47.666;9.160;2022-07-06T22:46:35;19.10;99.90
12771;DHT22;6449;47.666;9.160;2022-07-06T22:51:28;19.10;99.90
12771;DHT22;6449;47.666;9.160;2022-07-06T22:56:22;19.20;99.90
12771;DHT22;6449;47.666;9.160;2022-07-06T23:01:16;19.20;99.90
12771;DHT22;6449;47.666;9.160;2022-07-06T23:06:11;18.90;99.90
12771;DHT22;6449;47.666;9.160;2022-07-06T23:11:05;18.80;99.90
12771;DHT22;6449;47.666;9.160;2022-07-06T23:15:58;18.90;99.90
12771;DHT22;6449;47.666;9.160;2022-07-06T23:20:52;19.10;99.90
12771;DHT22;6449;47.666;9.160;2022-07-06T23:25:47;19.10;99.90
